createdAt,value
2022-11-20T00:02:42.890Z,5.88
2022-11-20T00:07:44.609Z,8.55
2022-11-20T00:12:46.032Z,7.30
2022-11-20T00:17:47.412Z,7.45
2022-11-20T00:22:48.803Z,7.00
2022-11-20T00:27:50.236Z,7.63
2022-11-20T00:32:51.686Z,7.25
2022-11-20T00:37:53.260Z,6.38
2022-11-20T00:42:54.642Z,6.35
2022-11-20T00:47:56.055Z,6.55
2022-11-20T00:52:57.533Z,6.38
2022-11-20T00:58:02.421Z,5.55
2022-11-20T01:03:05.755Z,5.63
2022-11-20T01:08:07.248Z,5.78
2022-11-20T01:13:08.675Z,5.25
2022-11-20T01:18:10.164Z,6.15
2022-11-20T01:23:11.557Z,9.45
2022-11-20T01:28:13.053Z,5.90
2022-11-20T01:33:14.413Z,7.30
2022-11-20T01:38:17.020Z,6.28
2022-11-20T01:43:20.524Z,5.30
2022-11-20T01:48:24.684Z,5.43
2022-11-20T01:53:31.662Z,5.75
2022-11-20T01:58:36.494Z,4.35
2022-11-20T02:03:38.078Z,6.10
2022-11-20T02:08:39.707Z,4.85
2022-11-20T02:13:42.097Z,3.85
2022-11-20T02:18:45.256Z,4.95
2022-11-20T02:23:52.750Z,5.03
2022-11-20T02:28:55.249Z,4.80
2022-11-20T02:33:59.685Z,4.00
2022-11-20T02:39:01.218Z,4.38
2022-11-20T02:44:03.493Z,4.22
2022-11-20T02:49:06.148Z,4.28
2022-11-20T02:54:07.552Z,4.47
2022-11-20T02:59:09.193Z,4.13
2022-11-20T03:04:10.754Z,4.25
2022-11-20T03:09:12.578Z,4.78
2022-11-20T03:14:14.101Z,4.20
2022-11-20T03:19:15.836Z,4.18
2022-11-20T03:24:17.391Z,3.35
2022-11-20T03:29:19.261Z,4.22
2022-11-20T03:34:20.985Z,4.05
2022-11-20T03:39:22.565Z,3.85
2022-11-20T03:44:24.326Z,5.47
2022-11-20T03:49:26.009Z,3.92
2022-11-20T03:54:27.375Z,3.28
2022-11-20T03:59:28.805Z,4.03
2022-11-20T04:04:30.345Z,4.13
2022-11-20T04:09:31.780Z,4.32
2022-11-20T04:14:33.240Z,3.97
2022-11-20T04:19:34.689Z,4.53
2022-11-20T04:24:36.215Z,5.50
2022-11-20T04:29:37.660Z,4.93
2022-11-20T04:34:39.102Z,4.25
2022-11-20T04:39:40.536Z,4.20
2022-11-20T04:44:41.990Z,4.05
2022-11-20T04:49:43.492Z,3.92
2022-11-20T04:54:44.975Z,3.75
2022-11-20T04:59:46.537Z,4.05
2022-11-20T05:04:48.587Z,4.47
2022-11-20T05:09:49.988Z,4.28
2022-11-20T05:14:51.385Z,3.97
2022-11-20T05:19:53.299Z,3.72
2022-11-20T05:24:54.827Z,4.20
2022-11-20T05:29:56.296Z,5.00
2022-11-20T05:34:57.739Z,4.35
2022-11-20T05:39:59.458Z,3.95
2022-11-20T05:45:02.129Z,4.28
2022-11-20T05:50:03.838Z,3.90
2022-11-20T05:55:05.824Z,3.58
2022-11-20T06:00:08.037Z,3.67
2022-11-20T06:05:09.698Z,4.13
2022-11-20T06:10:11.179Z,4.00
2022-11-20T06:15:12.621Z,3.10
2022-11-20T06:20:14.273Z,3.05
2022-11-20T06:25:15.747Z,3.53
2022-11-20T06:30:17.134Z,3.08
2022-11-20T06:35:18.574Z,3.60
2022-11-20T06:40:20.390Z,3.22
2022-11-20T06:45:22.351Z,2.92
2022-11-20T06:50:23.807Z,3.35
2022-11-20T06:55:25.276Z,2.80
2022-11-20T07:00:26.708Z,2.72
2022-11-20T07:05:28.204Z,3.25
2022-11-20T07:10:29.798Z,4.07
2022-11-20T07:15:31.501Z,3.28
2022-11-20T07:20:32.965Z,2.88
2022-11-20T07:25:34.577Z,2.97
2022-11-20T07:30:36.065Z,1.70
2022-11-20T07:35:37.481Z,2.67
2022-11-20T07:40:38.960Z,2.17
2022-11-20T07:45:40.450Z,2.45
2022-11-20T07:50:41.898Z,3.22
2022-11-20T07:55:43.379Z,1.75
2022-11-20T08:00:44.867Z,2.17
2022-11-20T08:05:46.303Z,2.00
2022-11-20T08:10:47.727Z,4.13
2022-11-20T08:15:50.893Z,4.28
2022-11-20T08:20:52.360Z,4.32
2022-11-20T08:25:53.834Z,5.50
2022-11-20T08:31:00.943Z,4.60
2022-11-20T08:36:04.389Z,2.42
2022-11-20T08:41:06.749Z,2.60
2022-11-20T08:46:08.284Z,2.22
2022-11-20T08:51:09.985Z,3.28
2022-11-20T08:56:11.466Z,3.13
2022-11-20T09:01:13.000Z,4.60
2022-11-20T09:06:15.123Z,5.57
2022-11-20T09:11:16.555Z,4.90
2022-11-20T09:16:18.201Z,4.53
2022-11-20T09:21:19.687Z,8.63
2022-11-20T09:26:21.246Z,6.28
2022-11-20T09:31:24.593Z,5.05
2022-11-20T09:36:26.098Z,5.40
2022-11-20T09:41:53.493Z,5.57
2022-11-20T09:47:04.879Z,4.65
2022-11-20T09:52:37.840Z,5.72
2022-11-20T09:57:43.447Z,4.50
2022-11-20T10:02:56.705Z,5.75
2022-11-20T10:08:16.577Z,6.03
2022-11-20T10:13:29.948Z,6.80
2022-11-20T10:18:49.460Z,6.47
2022-11-20T10:24:03.014Z,4.93
2022-11-20T10:29:16.598Z,5.20
2022-11-20T10:34:27.264Z,5.10
2022-11-20T10:39:51.083Z,5.53
2022-11-20T10:45:02.774Z,4.78
2022-11-20T10:50:12.211Z,5.40
2022-11-20T10:55:19.572Z,3.50
2022-11-20T11:00:21.080Z,4.35
2022-11-20T11:05:49.768Z,4.93
2022-11-20T11:10:57.449Z,4.07
2022-11-20T11:15:59.285Z,2.72
2022-11-20T11:21:03.344Z,3.70
2022-11-20T11:26:07.663Z,3.50
2022-11-20T11:31:09.146Z,3.53
2022-11-20T11:36:24.015Z,3.28
2022-11-20T11:41:30.558Z,2.35
2022-11-20T11:46:34.584Z,2.85
2022-11-20T11:51:42.886Z,2.40
2022-11-20T11:56:45.566Z,2.78
2022-11-20T12:01:55.714Z,2.63
2022-11-20T12:07:31.405Z,3.20
2022-11-20T12:12:39.957Z,2.78
2022-11-20T12:17:41.416Z,3.15
2022-11-20T12:22:55.669Z,3.67
2022-11-20T12:28:17.200Z,2.92
2022-11-20T12:33:21.343Z,2.92
2022-11-20T12:38:47.010Z,2.35
2022-11-20T12:44:09.037Z,3.15
2022-11-20T12:49:48.196Z,3.17
2022-11-20T12:55:11.860Z,3.50
2022-11-20T13:00:22.392Z,4.03
2022-11-20T13:05:56.419Z,3.13
2022-11-20T13:11:04.517Z,3.60
2022-11-20T13:16:14.643Z,3.58
2022-11-20T13:21:36.252Z,4.55
2022-11-20T13:26:37.711Z,3.92
2022-11-20T13:31:44.907Z,4.20
2022-11-20T13:36:51.595Z,3.08
2022-11-20T13:42:01.719Z,3.75
2022-11-20T13:47:03.201Z,4.00
2022-11-20T13:52:29.591Z,3.45
2022-11-20T13:57:40.380Z,2.88
2022-11-20T14:02:43.503Z,2.70
2022-11-20T14:07:46.371Z,3.33
2022-11-20T14:12:47.919Z,3.22
2022-11-20T14:17:49.332Z,3.17
2022-11-20T14:22:51.048Z,2.83
2022-11-20T14:28:04.446Z,2.63
2022-11-20T14:33:05.952Z,3.17
2022-11-20T14:38:12.802Z,2.90
2022-11-20T14:43:25.093Z,1.42
2022-11-20T14:48:38.961Z,1.42
2022-11-20T14:53:40.437Z,1.50
2022-11-20T14:58:41.902Z,1.35
2022-11-20T15:03:43.432Z,1.10
2022-11-20T15:08:54.749Z,1.00
2022-11-20T15:13:56.257Z,0.85
2022-11-20T15:18:57.958Z,0.77
2022-11-20T15:23:59.365Z,0.43
2022-11-20T15:29:00.776Z,2.30
2022-11-20T15:34:02.279Z,1.52
2022-11-20T15:39:03.699Z,1.08
2022-11-20T15:44:05.931Z,0.77
2022-11-20T15:49:13.248Z,0.55
2022-11-20T15:54:17.012Z,0.08
2022-11-20T15:59:19.005Z,0.22
2022-11-20T16:04:20.754Z,0.25
2022-11-20T16:09:22.397Z,0.38
2022-11-20T16:14:24.031Z,0.30
2022-11-20T16:19:25.651Z,0.30
2022-11-20T16:24:27.187Z,0.10
2022-11-20T16:29:28.658Z,0.30
2022-11-20T16:34:30.211Z,1.55
2022-11-20T16:39:31.697Z,1.27
2022-11-20T16:44:33.123Z,1.17
2022-11-20T16:49:34.510Z,1.15
2022-11-20T16:54:35.964Z,1.00
2022-11-20T16:59:37.456Z,0.80
2022-11-20T17:04:39.192Z,0.77
2022-11-20T17:09:41.044Z,0.82
2022-11-20T17:14:42.434Z,2.08
2022-11-20T17:19:43.899Z,1.50
2022-11-20T17:24:45.311Z,1.52
2022-11-20T17:29:46.700Z,1.38
2022-11-20T17:34:48.119Z,1.35
2022-11-20T17:39:49.550Z,1.20
2022-11-20T17:44:50.943Z,1.30
2022-11-20T17:49:52.456Z,0.95
2022-11-20T17:54:53.911Z,1.30
2022-11-20T17:59:55.358Z,1.20
2022-11-20T18:04:56.810Z,0.70
2022-11-20T18:09:58.223Z,0.40
2022-11-20T18:14:59.688Z,0.28
2022-11-20T18:20:27.282Z,0.17
2022-11-20T18:25:22.659Z,0.00
2022-11-20T18:30:24.051Z,0.10
2022-11-20T18:35:27.006Z,0.08
2022-11-20T18:40:28.474Z,0.15
2022-11-20T18:45:29.906Z,0.00
2022-11-20T18:50:31.366Z,0.08
2022-11-20T18:55:32.730Z,0.00
2022-11-20T19:00:34.189Z,0.15
2022-11-20T19:05:36.653Z,0.00
2022-11-20T19:10:38.177Z,0.00
2022-11-20T19:15:39.678Z,0.10
2022-11-20T19:20:41.162Z,0.00
2022-11-20T19:25:42.556Z,0.00
2022-11-20T19:30:43.994Z,0.00
2022-11-20T19:35:45.409Z,0.10
2022-11-20T19:40:46.845Z,0.10
2022-11-20T19:45:48.238Z,0.00
2022-11-20T19:50:50.109Z,0.00
2022-11-20T19:55:58.834Z,0.10
2022-11-20T20:01:15.684Z,0.00
2022-11-20T20:06:20.062Z,0.13
2022-11-20T20:11:23.006Z,0.10
2022-11-20T20:16:26.076Z,0.03
2022-11-20T20:21:28.774Z,0.00
2022-11-20T20:26:31.681Z,0.52
2022-11-20T20:31:34.353Z,0.20
2022-11-20T20:36:35.820Z,0.20
2022-11-20T20:41:37.257Z,0.08
2022-11-20T20:46:41.540Z,0.00
2022-11-20T20:51:43.009Z,0.05
2022-11-20T20:56:44.468Z,0.00
2022-11-20T21:01:45.966Z,0.40
2022-11-20T21:06:47.408Z,0.10
2022-11-20T21:11:48.825Z,0.00
2022-11-20T21:16:50.306Z,0.10
2022-11-20T21:21:51.834Z,0.10
2022-11-20T21:26:53.519Z,0.00
2022-11-20T21:31:55.739Z,0.20
2022-11-20T21:36:57.192Z,0.10
2022-11-20T21:41:58.626Z,0.13
2022-11-20T21:47:00.130Z,0.10
2022-11-20T21:52:01.683Z,0.00
2022-11-20T21:57:03.179Z,0.00
2022-11-20T22:02:04.680Z,0.00
2022-11-20T22:07:06.200Z,0.00
2022-11-20T22:12:07.713Z,0.30
2022-11-20T22:17:13.547Z,0.08
2022-11-20T22:27:16.296Z,0.00
2022-11-20T22:32:17.705Z,0.00
2022-11-20T22:37:19.124Z,0.00
2022-11-20T22:42:20.592Z,0.00
2022-11-20T22:47:21.998Z,0.00
2022-11-20T22:52:23.532Z,0.08
2022-11-20T22:57:24.995Z,0.00
2022-11-20T23:02:26.395Z,0.00
2022-11-20T23:07:27.957Z,0.00
2022-11-20T23:12:29.518Z,0.00
2022-11-20T23:17:30.948Z,0.00
2022-11-20T23:22:32.383Z,0.05
2022-11-20T23:27:33.842Z,0.00
2022-11-20T23:32:35.247Z,0.00
2022-11-20T23:37:36.733Z,0.00
2022-11-20T23:42:38.155Z,0.05
2022-11-20T23:47:39.538Z,0.00
2022-11-20T23:52:40.931Z,0.10
2022-11-20T23:57:42.386Z,0.03
